Time;durP1;ratioP1;P1;durP2;ratioP2;P2;SDS_P1;SDS_P2;PMS_P1;PMS_P2;Temp;Humidity;BMP_temperature;BMP_pressure;BME280_temperature;BME280_humidity;BME280_pressure;Samples;Min_cycle;Max_cycle;Signal;HPM_P1;HPM_P2
2022/06/19 00:00:14;;;;;;;0.40;0.40;;;23.10;99.90;;;;;;5055905;28;20198;-66
2022/06/19 00:03:04;;;;;;;0.40;0.40;;;23.10;99.90;;;;;;5055734;28;20212;-68
2022/06/19 00:05:54;;;;;;;0.40;0.40;;;23.10;99.90;;;;;;5055969;28;20197;-66
2022/06/19 00:08:45;;;;;;;0.40;0.40;;;23.10;99.90;;;;;;5055349;28;20639;-68
2022/06/19 00:11:35;;;;;;;0.40;0.40;;;23.10;99.90;;;;;;5055869;28;20603;-68
2022/06/19 00:14:23;;;;;;;0.40;0.40;;;23.10;99.90;;;;;;5055489;28;20201;-68
2022/06/19 00:17:13;;;;;;;0.40;0.40;;;23.00;99.90;;;;;;5055137;28;20270;-66
2022/06/19 00:20:03;;;;;;;0.40;0.40;;;23.10;99.90;;;;;;5055303;28;20225;-68
2022/06/19 00:22:53;;;;;;;0.50;0.50;;;23.10;99.90;;;;;;5054645;28;20243;-67
2022/06/19 00:25:41;;;;;;;0.40;0.40;;;23.00;99.90;;;;;;5055071;28;20622;-67
2022/06/19 00:28:29;;;;;;;0.40;0.40;;;23.00;99.90;;;;;;5055149;28;20204;-66
2022/06/19 00:31:17;;;;;;;0.40;0.40;;;23.00;99.90;;;;;;5054251;28;20201;-68
2022/06/19 00:34:06;;;;;;;0.40;0.40;;;23.00;99.90;;;;;;5054833;28;20208;-66
2022/06/19 00:36:54;;;;;;;0.40;0.40;;;23.00;99.90;;;;;;5055511;28;20256;-66
2022/06/19 00:39:43;;;;;;;0.40;0.40;;;23.00;99.90;;;;;;5054512;28;20727;-68
2022/06/19 00:42:31;;;;;;;0.40;0.40;;;22.90;99.90;;;;;;5054945;28;20686;-68
2022/06/19 00:45:32;;;;;;;0.40;0.40;;;22.90;99.90;;;;;;5054635;28;20251;-69
2022/06/19 00:48:24;;;;;;;0.40;0.40;;;22.90;99.90;;;;;;5054921;28;20225;-70
2022/06/19 00:51:12;;;;;;;0.45;0.45;;;22.80;99.90;;;;;;5054315;28;20230;-70
2022/06/19 00:54:01;;;;;;;0.40;0.40;;;22.80;99.90;;;;;;5053846;28;20209;-70
2022/06/19 00:56:50;;;;;;;0.40;0.40;;;22.80;99.90;;;;;;5054111;28;20322;-68
2022/06/19 00:59:41;;;;;;;0.45;0.45;;;22.80;99.90;;;;;;5053313;28;20209;-68
2022/06/19 01:02:30;;;;;;;0.40;0.40;;;22.70;99.90;;;;;;5054718;28;20205;-67
2022/06/19 01:05:18;;;;;;;0.40;0.40;;;22.80;99.90;;;;;;5053174;28;20239;-67
2022/06/19 01:08:06;;;;;;;0.50;0.50;;;22.60;99.90;;;;;;5052948;28;20244;-67
2022/06/19 01:10:55;;;;;;;0.70;0.70;;;22.60;99.90;;;;;;5053152;28;20264;-70
2022/06/19 01:13:44;;;;;;;0.40;0.40;;;22.70;99.90;;;;;;5052957;28;20213;-68
2022/06/19 01:16:33;;;;;;;0.40;0.40;;;22.60;99.90;;;;;;5053281;28;20604;-67
2022/06/19 01:19:25;;;;;;;0.77;0.77;;;22.60;99.90;;;;;;5053208;28;20701;-68
2022/06/19 01:22:23;;;;;;;0.40;0.40;;;22.50;99.90;;;;;;5053310;28;20201;-68
2022/06/19 01:25:16;;;;;;;0.70;0.70;;;22.50;99.90;;;;;;5053281;28;20204;-68
2022/06/19 01:31:17;;;;;;;0.40;0.40;;;22.40;99.90;;;;;;5053112;28;20202;-67
2022/06/19 01:37:26;;;;;;;0.40;0.40;;;22.40;99.90;;;;;;5053065;28;20225;-68
2022/06/19 01:40:20;;;;;;;0.40;0.40;;;22.40;99.90;;;;;;5052202;28;20243;-70
2022/06/19 01:43:09;;;;;;;0.40;0.40;;;22.30;99.90;;;;;;5052251;28;20251;-69
2022/06/19 01:45:57;;;;;;;0.40;0.40;;;22.30;99.90;;;;;;5052957;28;20198;-68
2022/06/19 01:48:46;;;;;;;0.50;0.50;;;22.20;99.90;;;;;;5054239;28;20193;-70
2022/06/19 01:51:35;;;;;;;0.40;0.40;;;22.30;99.90;;;;;;5055125;28;20204;-68
2022/06/19 01:54:28;;;;;;;0.40;0.40;;;22.20;99.90;;;;;;5052650;28;20678;-68
2022/06/19 01:57:19;;;;;;;0.40;0.40;;;22.10;99.90;;;;;;5051826;28;20228;-70
2022/06/19 02:00:11;;;;;;;2.25;2.15;;;22.10;99.90;;;;;;5042332;28;20239;-70
2022/06/19 02:03:05;;;;;;;0.40;0.40;;;22.10;99.90;;;;;;5051857;28;20193;-68
2022/06/19 02:05:54;;;;;;;0.40;0.40;;;22.10;99.90;;;;;;5052475;28;20609;-67
2022/06/19 02:08:43;;;;;;;0.40;0.40;;;22.00;99.90;;;;;;5053042;28;20198;-68
2022/06/19 02:11:34;;;;;;;0.40;0.40;;;22.00;99.90;;;;;;5051206;28;20244;-67
2022/06/19 02:14:24;;;;;;;0.40;0.40;;;22.00;99.90;;;;;;5052914;28;20197;-68
2022/06/19 02:17:18;;;;;;;0.40;0.40;;;22.00;99.90;;;;;;5051398;28;20217;-68
2022/06/19 02:20:08;;;;;;;0.40;0.40;;;21.90;99.90;;;;;;5052636;28;20202;-68
2022/06/19 02:22:57;;;;;;;0.40;0.40;;;21.90;99.90;;;;;;5051095;28;20419;-68
2022/06/19 02:25:45;;;;;;;0.50;0.50;;;21.80;99.90;;;;;;5052650;28;20251;-66
2022/06/19 02:28:36;;;;;;;0.40;0.40;;;21.80;99.90;;;;;;5052001;28;20189;-66
2022/06/19 02:31:32;;;;;;;0.40;0.40;;;21.80;99.90;;;;;;5050893;28;20298;-67
2022/06/19 02:34:25;;;;;;;0.50;0.50;;;21.80;99.90;;;;;;5051296;28;20284;-68
2022/06/19 02:37:17;;;;;;;0.50;0.50;;;21.80;99.90;;;;;;5052404;28;20214;-67
2022/06/19 02:40:15;;;;;;;0.75;0.75;;;21.70;99.90;;;;;;5051955;28;20280;-67
2022/06/19 02:43:07;;;;;;;0.40;0.40;;;21.70;99.90;;;;;;5051837;28;20198;-69
2022/06/19 02:45:55;;;;;;;0.40;0.40;;;21.70;99.90;;;;;;5052396;28;20200;-67
2022/06/19 02:48:46;;;;;;;0.40;0.40;;;21.70;99.90;;;;;;5051810;28;20570;-69
2022/06/19 02:51:34;;;;;;;0.40;0.40;;;21.70;99.90;;;;;;5052529;28;20685;-67
2022/06/19 02:54:22;;;;;;;0.40;0.40;;;21.70;99.90;;;;;;5052110;28;20209;-68
2022/06/19 02:57:12;;;;;;;0.40;0.40;;;21.60;99.90;;;;;;5051441;28;20732;-69
2022/06/19 03:00:00;;;;;;;0.40;0.40;;;21.60;99.90;;;;;;5051872;28;20209;-69
2022/06/19 03:02:50;;;;;;;0.40;0.40;;;21.60;99.90;;;;;;5052137;28;20198;-68
2022/06/19 03:05:40;;;;;;;0.47;0.47;;;21.60;99.90;;;;;;5052086;28;20201;-69
2022/06/19 03:08:30;;;;;;;0.40;0.40;;;21.60;99.90;;;;;;5051915;28;20204;-68
2022/06/19 03:11:18;;;;;;;0.50;0.50;;;21.50;99.90;;;;;;5051670;28;20702;-69
2022/06/19 03:14:06;;;;;;;0.40;0.40;;;21.50;99.90;;;;;;5051272;28;20193;-67
2022/06/19 03:16:54;;;;;;;0.45;0.45;;;21.50;99.90;;;;;;5051759;28;20217;-68
2022/06/19 03:19:43;;;;;;;0.40;0.40;;;21.60;99.90;;;;;;5051573;28;20552;-67
2022/06/19 03:22:33;;;;;;;0.40;0.40;;;21.60;99.90;;;;;;5051774;28;20194;-67
2022/06/19 03:25:22;;;;;;;0.40;0.40;;;21.60;99.90;;;;;;5051768;28;20607;-68
2022/06/19 03:28:10;;;;;;;0.40;0.40;;;21.60;99.90;;;;;;5051623;28;20249;-69
2022/06/19 03:30:59;;;;;;;0.40;0.40;;;21.60;99.90;;;;;;5050614;28;20212;-71
2022/06/19 03:33:47;;;;;;;0.40;0.40;;;21.60;99.90;;;;;;5051467;28;20197;-69
2022/06/19 03:36:35;;;;;;;0.40;0.40;;;21.60;99.90;;;;;;5052236;28;20217;-69
2022/06/19 03:39:25;;;;;;;0.40;0.40;;;21.60;99.90;;;;;;5051994;28;20217;-67
2022/06/19 03:42:15;;;;;;;0.40;0.40;;;21.60;99.90;;;;;;5051174;28;20210;-68
2022/06/19 03:45:05;;;;;;;0.40;0.40;;;21.60;99.90;;;;;;5051214;28;20780;-68
2022/06/19 03:47:53;;;;;;;1.13;0.68;;;21.60;99.90;;;;;;5050761;28;20606;-67
2022/06/19 03:50:42;;;;;;;0.40;0.40;;;21.60;99.90;;;;;;5051658;28;20201;-67
2022/06/19 03:53:31;;;;;;;0.40;0.40;;;21.70;99.90;;;;;;5051684;28;20692;-67
2022/06/19 03:56:23;;;;;;;0.40;0.40;;;21.70;99.90;;;;;;5051634;28;20224;-67
2022/06/19 03:59:12;;;;;;;0.40;0.40;;;21.70;99.90;;;;;;5049328;28;20564;-72
2022/06/19 04:02:02;;;;;;;0.40;0.40;;;21.70;99.90;;;;;;5051205;28;20581;-67
2022/06/19 04:04:50;;;;;;;0.47;0.47;;;21.70;99.90;;;;;;5051441;28;20209;-70
2022/06/19 04:07:43;;;;;;;0.40;0.40;;;21.70;99.90;;;;;;5050246;28;20221;-68
2022/06/19 04:10:32;;;;;;;0.40;0.40;;;21.80;99.90;;;;;;5051069;28;20197;-67
2022/06/19 04:13:22;;;;;;;0.40;0.40;;;21.80;99.90;;;;;;5050970;28;20719;-69
2022/06/19 04:16:15;;;;;;;0.40;0.40;;;21.90;99.90;;;;;;5051059;28;20247;-69
2022/06/19 04:19:06;;;;;;;0.40;0.40;;;21.90;99.90;;;;;;5050697;28;20217;-68
2022/06/19 04:21:54;;;;;;;0.50;0.50;;;21.90;99.90;;;;;;5050182;28;20198;-68
2022/06/19 04:24:42;;;;;;;1.05;0.63;;;21.90;99.90;;;;;;5052097;28;20204;-69
2022/06/19 04:27:32;;;;;;;0.50;0.50;;;21.90;99.90;;;;;;5054281;28;20232;-70
2022/06/19 04:30:22;;;;;;;0.40;0.40;;;21.90;99.90;;;;;;5053338;28;20197;-69
2022/06/19 04:33:10;;;;;;;0.40;0.40;;;22.00;99.90;;;;;;5054302;28;20674;-67
2022/06/19 04:35:59;;;;;;;2.47;1.90;;;22.00;99.90;;;;;;5054201;28;20697;-67
2022/06/19 04:38:49;;;;;;;0.40;0.40;;;22.00;99.90;;;;;;5053410;28;20221;-69
2022/06/19 04:41:39;;;;;;;0.40;0.40;;;22.00;99.90;;;;;;5054080;28;20205;-68
2022/06/19 04:44:28;;;;;;;0.40;0.40;;;22.00;99.90;;;;;;5053346;28;20700;-69
2022/06/19 04:47:17;;;;;;;0.40;0.40;;;22.00;99.90;;;;;;5053159;28;20236;-68
2022/06/19 04:50:08;;;;;;;0.60;0.60;;;22.10;99.90;;;;;;5053278;28;20202;-68
2022/06/19 04:52:56;;;;;;;0.40;0.40;;;22.20;99.90;;;;;;5053844;28;20607;-68
2022/06/19 04:55:44;;;;;;;0.47;0.47;;;22.20;99.90;;;;;;5053721;28;20202;-68
2022/06/19 04:58:32;;;;;;;0.40;0.40;;;22.20;99.90;;;;;;5034293;28;20210;-67
2022/06/19 05:01:24;;;;;;;0.40;0.40;;;22.30;99.90;;;;;;5034304;28;20208;-66
2022/06/19 05:04:13;;;;;;;0.40;0.40;;;22.40;99.90;;;;;;5033838;28;20221;-67
2022/06/19 05:07:02;;;;;;;0.40;0.40;;;22.40;99.90;;;;;;5033035;28;20229;-69
2022/06/19 05:09:50;;;;;;;0.40;0.40;;;22.50;99.90;;;;;;5033067;28;20198;-67
2022/06/19 05:12:38;;;;;;;0.40;0.40;;;22.50;99.90;;;;;;5033244;28;20202;-67
2022/06/19 05:15:27;;;;;;;1.10;1.10;;;22.50;99.90;;;;;;5034092;28;20290;-67
2022/06/19 05:18:15;;;;;;;0.40;0.40;;;22.60;99.90;;;;;;5033612;28;20226;-67
2022/06/19 05:21:05;;;;;;;0.40;0.40;;;22.70;99.90;;;;;;5032761;28;20622;-67
2022/06/19 05:23:55;;;;;;;0.40;0.40;;;22.70;99.90;;;;;;5033067;28;20585;-67
2022/06/19 05:26:43;;;;;;;0.43;0.43;;;22.80;99.90;;;;;;5034295;28;20226;-67
2022/06/19 05:29:32;;;;;;;0.40;0.40;;;22.90;99.90;;;;;;5035232;28;20221;-68
2022/06/19 05:32:23;;;;;;;0.40;0.40;;;22.90;99.90;;;;;;5033969;28;20202;-67
2022/06/19 05:35:11;;;;;;;0.40;0.40;;;23.10;99.90;;;;;;5034096;28;20206;-67
2022/06/19 05:38:01;;;;;;;0.40;0.40;;;23.10;99.90;;;;;;5034109;28;20221;-66
2022/06/19 05:40:51;;;;;;;0.40;0.40;;;23.30;99.90;;;;;;5033317;28;20198;-66
2022/06/19 05:43:39;;;;;;;0.40;0.40;;;23.30;99.90;;;;;;5034569;28;20255;-66
2022/06/19 05:46:27;;;;;;;0.40;0.40;;;23.40;99.90;;;;;;5034964;28;20317;-67
2022/06/19 05:49:16;;;;;;;0.40;0.40;;;23.60;99.90;;;;;;5034666;28;20194;-66
2022/06/19 05:52:14;;;;;;;0.40;0.40;;;23.70;99.90;;;;;;5033533;28;20202;-67
2022/06/19 05:55:05;;;;;;;0.40;0.40;;;23.90;99.90;;;;;;5034586;28;20205;-68
2022/06/19 05:57:53;;;;;;;0.40;0.40;;;24.00;99.90;;;;;;5048880;28;20642;-68
2022/06/19 06:00:42;;;;;;;0.47;0.47;;;24.10;99.90;;;;;;5052454;28;20193;-66
2022/06/19 06:03:31;;;;;;;0.40;0.40;;;24.20;99.90;;;;;;5053736;28;20201;-69
2022/06/19 06:06:22;;;;;;;0.50;0.50;;;24.40;99.90;;;;;;5053743;28;20204;-68
2022/06/19 06:09:13;;;;;;;0.50;0.50;;;24.60;99.90;;;;;;5052950;28;20205;-67
2022/06/19 06:12:03;;;;;;;0.45;0.45;;;24.70;99.90;;;;;;5053853;28;20201;-68
2022/06/19 06:14:51;;;;;;;0.40;0.40;;;24.90;99.90;;;;;;5052851;28;20209;-68
2022/06/19 06:17:39;;;;;;;0.40;0.40;;;25.00;99.90;;;;;;5052955;28;20225;-68
2022/06/19 06:20:28;;;;;;;0.40;0.40;;;25.10;99.90;;;;;;5053476;28;20221;-69
2022/06/19 06:23:17;;;;;;;0.40;0.40;;;25.20;99.90;;;;;;5053401;28;20277;-68
2022/06/19 06:26:08;;;;;;;0.40;0.40;;;25.40;99.90;;;;;;5052656;28;20210;-68
2022/06/19 06:29:00;;;;;;;0.40;0.40;;;25.50;99.90;;;;;;5052957;28;20210;-68
2022/06/19 06:31:48;;;;;;;0.75;0.75;;;25.60;99.90;;;;;;5052118;28;20518;-67
2022/06/19 06:34:36;;;;;;;0.40;0.40;;;25.70;99.90;;;;;;5052615;28;20270;-68
2022/06/19 06:37:24;;;;;;;0.40;0.40;;;25.80;99.90;;;;;;5052600;28;20724;-68
2022/06/19 06:40:13;;;;;;;0.40;0.40;;;25.90;99.90;;;;;;5051606;28;20716;-68
2022/06/19 06:43:01;;;;;;;0.40;0.40;;;26.00;99.90;;;;;;5051921;28;20205;-68
2022/06/19 06:45:51;;;;;;;0.40;0.40;;;26.20;99.90;;;;;;5051858;28;20193;-68
2022/06/19 06:48:39;;;;;;;0.40;0.40;;;26.30;99.90;;;;;;5052169;28;20205;-67
2022/06/19 06:51:28;;;;;;;0.50;0.50;;;26.40;99.90;;;;;;5052264;28;20213;-68
2022/06/19 06:54:16;;;;;;;0.40;0.40;;;26.60;99.90;;;;;;5051797;28;20208;-68
2022/06/19 06:57:05;;;;;;;0.40;0.40;;;26.70;99.90;;;;;;5043521;28;20591;-68
2022/06/19 06:59:53;;;;;;;0.40;0.40;;;26.90;99.90;;;;;;5032371;28;20709;-66
2022/06/19 07:02:43;;;;;;;0.40;0.40;;;27.00;99.90;;;;;;5038717;28;20202;-68
2022/06/19 07:05:32;;;;;;;0.57;0.57;;;27.20;99.90;;;;;;5037276;28;20198;-67
2022/06/19 07:08:20;;;;;;;0.70;0.70;;;27.30;99.90;;;;;;5033015;28;20232;-67
2022/06/19 07:11:09;;;;;;;0.40;0.40;;;27.40;99.90;;;;;;5031977;28;20227;-67
2022/06/19 07:13:57;;;;;;;0.50;0.50;;;27.50;99.90;;;;;;5032093;28;20198;-67
2022/06/19 07:16:46;;;;;;;0.40;0.40;;;27.60;99.70;;;;;;5032608;28;20268;-67
2022/06/19 07:19:36;;;;;;;0.50;0.50;;;27.70;99.40;;;;;;5031096;28;20218;-67
2022/06/19 07:22:24;;;;;;;0.40;0.40;;;27.80;98.30;;;;;;5031758;28;20202;-67
2022/06/19 07:25:16;;;;;;;19.50;17.95;;;27.90;97.60;;;;;;5032263;28;20275;-67
2022/06/19 07:28:05;;;;;;;2.75;2.65;;;28.10;97.10;;;;;;5031839;28;20217;-67
2022/06/19 07:30:53;;;;;;;0.50;0.50;;;28.20;96.50;;;;;;5032426;28;20198;-67
2022/06/19 07:33:42;;;;;;;1.58;1.58;;;28.30;96.10;;;;;;5032468;28;20201;-67
2022/06/19 07:36:32;;;;;;;0.90;0.60;;;28.40;95.30;;;;;;5031886;28;20222;-67
2022/06/19 07:39:21;;;;;;;0.40;0.40;;;28.50;95.20;;;;;;5031472;28;20237;-67
2022/06/19 07:42:10;;;;;;;1.38;1.27;;;28.60;94.90;;;;;;5031911;28;20202;-64
2022/06/19 07:44:58;;;;;;;0.40;0.40;;;28.70;94.70;;;;;;5031998;28;20668;-65
2022/06/19 07:51:03;;;;;;;1.67;1.33;;;28.90;93.80;;;;;;4990355;28;20305;-66
2022/06/19 07:53:53;;;;;;;0.40;0.40;;;29.10;93.30;;;;;;5030383;28;20209;-66
2022/06/19 07:56:41;;;;;;;0.60;0.60;;;29.20;92.40;;;;;;5035607;28;20695;-66
2022/06/19 07:59:29;;;;;;;0.60;0.60;;;29.40;91.90;;;;;;5051868;28;20217;-66
2022/06/19 08:02:17;;;;;;;0.60;0.60;;;29.50;90.90;;;;;;5054584;28;20205;-66
2022/06/19 08:05:08;;;;;;;0.40;0.40;;;29.70;90.20;;;;;;5054436;28;20261;-67
2022/06/19 08:07:58;;;;;;;0.40;0.40;;;29.80;89.50;;;;;;5054584;28;20228;-66
2022/06/19 08:10:50;;;;;;;0.40;0.40;;;29.90;88.30;;;;;;5053869;28;20204;-66
2022/06/19 08:13:39;;;;;;;0.40;0.40;;;30.10;86.10;;;;;;5053916;28;20228;-66
2022/06/19 08:16:28;;;;;;;3.60;0.80;;;30.20;84.60;;;;;;5054440;28;20709;-67
2022/06/19 08:19:16;;;;;;;0.40;0.40;;;30.30;82.70;;;;;;5054202;28;20201;-67
2022/06/19 08:22:05;;;;;;;0.40;0.40;;;30.40;82.60;;;;;;5054276;28;20201;-67
2022/06/19 08:24:53;;;;;;;0.40;0.40;;;30.60;82.00;;;;;;5053615;28;20193;-66
2022/06/19 08:27:47;;;;;;;0.40;0.40;;;30.70;81.90;;;;;;5054334;28;20228;-67
2022/06/19 08:30:37;;;;;;;2.65;2.45;;;30.70;81.60;;;;;;5053602;28;20193;-67
2022/06/19 08:33:25;;;;;;;0.50;0.50;;;30.80;80.90;;;;;;5053845;28;20201;-67
2022/06/19 08:36:14;;;;;;;0.50;0.50;;;30.90;79.90;;;;;;5053081;28;20626;-68
2022/06/19 08:39:04;;;;;;;0.63;0.63;;;31.00;76.10;;;;;;5053310;28;20613;-68
2022/06/19 08:42:05;;;;;;;0.40;0.40;;;31.10;74.70;;;;;;5053183;28;20217;-65
2022/06/19 08:45:36;;;;;;;4.68;1.20;;;31.10;73.80;;;;;;5053221;28;20205;-65
2022/06/19 08:48:50;;;;;;;0.50;0.50;;;31.20;72.90;;;;;;4991629;28;20226;-66
2022/06/19 08:51:58;;;;;;;1.25;1.15;;;31.30;71.20;;;;;;4992749;28;20192;-65
2022/06/19 08:54:58;;;;;;;0.50;0.50;;;31.40;71.30;;;;;;5054223;28;20207;-66
2022/06/19 08:57:56;;;;;;;0.60;0.60;;;31.50;70.50;;;;;;5055475;28;20232;-67
2022/06/19 09:00:51;;;;;;;3.15;2.35;;;31.50;69.60;;;;;;5054744;28;20239;-67
2022/06/19 09:07:04;;;;;;;0.50;0.50;;;31.60;68.80;;;;;;5053963;28;20221;-66
2022/06/19 09:10:07;;;;;;;1.25;1.02;;;31.70;67.90;;;;;;5053040;28;20560;-65
2022/06/19 09:13:18;;;;;;;0.50;0.50;;;31.80;67.40;;;;;;5053757;28;20308;-66
2022/06/19 09:16:16;;;;;;;0.60;0.60;;;31.80;67.50;;;;;;5053553;28;20206;-67
2022/06/19 09:19:13;;;;;;;0.40;0.40;;;31.90;67.80;;;;;;5051598;28;20203;-67
2022/06/19 09:22:14;;;;;;;0.77;0.77;;;31.90;67.50;;;;;;5052970;28;20689;-67
2022/06/19 09:25:20;;;;;;;0.50;0.50;;;32.10;66.90;;;;;;5053800;28;20197;-66
2022/06/19 09:28:17;;;;;;;0.40;0.40;;;32.10;66.60;;;;;;5054273;28;20217;-65
2022/06/19 09:31:12;;;;;;;2.08;1.98;;;32.20;67.30;;;;;;5053501;28;20198;-66
2022/06/19 09:34:04;;;;;;;0.98;0.98;;;32.20;66.90;;;;;;5053779;28;20202;-66
2022/06/19 09:36:59;;;;;;;0.50;0.50;;;32.30;66.00;;;;;;5053581;28;20213;-66
2022/06/19 09:39:54;;;;;;;0.40;0.40;;;32.40;65.50;;;;;;5053220;28;20201;-66
2022/06/19 09:42:47;;;;;;;0.60;0.60;;;32.50;66.10;;;;;;5053457;28;20678;-65
2022/06/19 09:45:38;;;;;;;0.40;0.40;;;32.50;65.30;;;;;;5053311;28;20610;-65
2022/06/19 09:48:32;;;;;;;0.50;0.50;;;32.60;65.20;;;;;;5053106;28;20240;-66
2022/06/19 09:51:25;;;;;;;1.25;1.23;;;32.70;64.80;;;;;;5052791;28;20193;-67
2022/06/19 09:54:17;;;;;;;6.28;2.58;;;32.80;64.40;;;;;;5052986;28;20201;-65
2022/06/19 09:57:11;;;;;;;0.40;0.40;;;32.90;64.30;;;;;;5053068;28;20771;-65
2022/06/19 10:00:04;;;;;;;0.40;0.40;;;32.90;63.90;;;;;;5052281;28;20637;-68
2022/06/19 10:02:58;;;;;;;0.40;0.40;;;33.00;63.30;;;;;;5052756;28;20208;-69
2022/06/19 10:05:51;;;;;;;0.40;0.40;;;33.00;62.90;;;;;;5052292;28;20229;-66
2022/06/19 10:08:45;;;;;;;0.50;0.50;;;33.10;63.40;;;;;;5051758;28;20212;-66
2022/06/19 10:11:42;;;;;;;0.60;0.60;;;33.10;62.30;;;;;;5052535;28;20232;-66
2022/06/19 10:14:36;;;;;;;0.60;0.60;;;33.30;61.90;;;;;;5051740;28;20584;-66
2022/06/19 10:17:29;;;;;;;1.25;1.08;;;33.40;61.70;;;;;;5051765;28;20588;-66
2022/06/19 10:20:20;;;;;;;0.80;0.70;;;33.50;61.10;;;;;;5051358;28;20193;-68
2022/06/19 10:23:17;;;;;;;0.82;0.82;;;33.50;60.40;;;;;;5051072;28;20193;-66
2022/06/19 10:26:20;;;;;;;0.75;0.75;;;33.60;59.90;;;;;;5052340;28;20206;-66
2022/06/19 10:29:18;;;;;;;0.40;0.40;;;33.70;59.90;;;;;;5050162;28;20205;-66
2022/06/19 10:32:36;;;;;;;2.80;0.82;;;33.80;59.70;;;;;;5051997;28;20678;-66
2022/06/19 10:35:38;;;;;;;0.75;0.73;;;33.90;59.40;;;;;;5051260;28;20193;-66
2022/06/19 10:38:48;;;;;;;0.40;0.40;;;34.00;59.00;;;;;;5052118;28;20224;-67
2022/06/19 10:45:14;;;;;;;2.78;2.53;;;34.20;59.00;;;;;;5052306;28;20201;-66
2022/06/19 10:48:24;;;;;;;15.10;2.50;;;34.30;58.60;;;;;;5051404;28;20710;-66
2022/06/19 10:51:32;;;;;;;0.40;0.40;;;34.40;58.40;;;;;;5052520;28;20197;-66
2022/06/19 10:54:46;;;;;;;2.05;0.90;;;34.40;58.30;;;;;;5052426;28;20274;-67
2022/06/19 10:57:48;;;;;;;2.38;2.10;;;34.50;58.20;;;;;;5051886;28;20221;-67
2022/06/19 11:00:37;;;;;;;0.70;0.70;;;34.60;58.40;;;;;;5051749;28;20204;-67
2022/06/19 11:06:46;;;;;;;2.30;1.90;;;34.80;58.00;;;;;;5051705;28;20244;-66
2022/06/19 11:09:40;;;;;;;0.40;0.40;;;34.90;58.30;;;;;;5051674;28;20295;-66
2022/06/19 11:12:33;;;;;;;0.80;0.60;;;35.00;58.60;;;;;;5051780;28;20200;-67
2022/06/19 11:15:29;;;;;;;0.40;0.40;;;35.00;57.60;;;;;;5051762;28;20204;-67
2022/06/19 11:18:20;;;;;;;0.60;0.60;;;35.10;58.00;;;;;;5051633;28;20633;-67
2022/06/19 11:21:14;;;;;;;1.13;1.05;;;35.10;58.10;;;;;;5051480;28;20221;-67
2022/06/19 11:24:05;;;;;;;0.68;0.68;;;35.20;57.20;;;;;;5052369;28;20578;-66
2022/06/19 11:26:58;;;;;;;1.05;1.02;;;35.20;57.30;;;;;;5052722;28;20218;-66
2022/06/19 11:29:50;;;;;;;8.73;3.13;;;35.20;57.00;;;;;;5052433;28;20698;-66
2022/06/19 11:32:50;;;;;;;13.77;1.67;;;35.20;59.00;;;;;;5052298;28;20251;-67
2022/06/19 11:35:41;;;;;;;2.90;2.70;;;35.00;64.60;;;;;;5051806;28;20263;-65
2022/06/19 11:38:36;;;;;;;1.20;1.15;;;34.70;67.60;;;;;;5052177;28;20222;-65
2022/06/19 11:41:31;;;;;;;1.40;1.30;;;34.50;68.80;;;;;;5052000;28;20217;-66
2022/06/19 11:44:21;;;;;;;8.52;1.27;;;34.30;68.80;;;;;;5051456;28;20208;-65
2022/06/19 11:47:17;;;;;;;11.45;10.77;;;34.10;69.20;;;;;;5051761;28;20225;-66
2022/06/19 11:50:21;;;;;;;2.22;2.08;;;34.20;70.00;;;;;;5050379;28;20204;-66
2022/06/19 11:53:17;;;;;;;2.42;1.55;;;34.00;71.20;;;;;;5051801;28;20197;-66
2022/06/19 11:56:25;;;;;;;1.00;0.77;;;34.00;71.90;;;;;;5051336;28;20255;-66
2022/06/19 11:59:31;;;;;;;3.67;2.15;;;34.10;71.70;;;;;;5031030;28;20197;-66
2022/06/19 12:02:28;;;;;;;0.80;0.80;;;34.00;71.80;;;;;;5030605;28;20217;-66
2022/06/19 12:05:24;;;;;;;10.88;3.42;;;33.70;72.30;;;;;;5030597;28;20209;-66
2022/06/19 12:08:20;;;;;;;0.93;0.93;;;33.50;71.40;;;;;;5030686;28;20221;-66
2022/06/19 12:11:09;;;;;;;5.22;3.85;;;33.10;72.00;;;;;;5030244;28;20205;-67
2022/06/19 12:13:57;;;;;;;4.22;1.45;;;32.90;71.70;;;;;;5030708;28;20288;-66
2022/06/19 12:16:47;;;;;;;4.38;3.15;;;32.80;71.20;;;;;;5030901;28;20229;-67
2022/06/19 12:19:35;;;;;;;7.95;3.17;;;32.90;71.10;;;;;;5030380;28;20202;-67
2022/06/19 12:22:32;;;;;;;4.05;2.65;;;32.90;71.10;;;;;;5030539;28;20264;-67
2022/06/19 12:25:32;;;;;;;1.00;1.00;;;32.90;69.90;;;;;;5030510;28;20201;-67
2022/06/19 12:28:27;;;;;;;2.35;1.77;;;33.10;70.20;;;;;;5030448;28;20236;-67
2022/06/19 12:31:18;;;;;;;1.60;1.50;;;33.30;69.70;;;;;;5030790;28;20198;-67
2022/06/19 12:34:19;;;;;;;0.40;0.40;;;33.30;69.50;;;;;;5030416;28;20347;-68
2022/06/19 12:37:15;;;;;;;2.28;2.08;;;33.30;69.20;;;;;;5030288;28;20219;-66
2022/06/19 12:40:07;;;;;;;1.27;1.17;;;33.30;68.50;;;;;;5030085;28;20609;-66
2022/06/19 12:43:03;;;;;;;3.75;2.55;;;33.30;69.20;;;;;;5031068;28;20225;-68
2022/06/19 12:45:56;;;;;;;1.20;1.10;;;33.90;68.80;;;;;;5032926;28;20194;-66
2022/06/19 12:48:54;;;;;;;0.98;0.95;;;35.00;66.40;;;;;;5034675;28;20254;-67
2022/06/19 12:51:55;;;;;;;0.63;0.63;;;36.20;64.30;;;;;;5037529;28;20590;-67
2022/06/19 12:55:06;;;;;;;1.80;1.42;;;36.60;62.20;;;;;;5050523;28;20682;-67
2022/06/19 12:58:20;;;;;;;4.40;2.85;;;36.30;61.50;;;;;;5050541;28;20228;-67
2022/06/19 13:01:14;;;;;;;2.03;1.83;;;36.40;61.20;;;;;;5053858;28;20665;-67
2022/06/19 13:04:17;;;;;;;2.05;1.25;;;36.80;61.20;;;;;;5052999;28;20546;-67
2022/06/19 13:07:31;;;;;;;2.67;1.48;;;37.10;60.80;;;;;;5052757;28;20225;-68
2022/06/19 13:10:48;;;;;;;0.40;0.40;;;37.10;60.50;;;;;;5054073;28;20197;-67
2022/06/19 13:14:09;;;;;;;5.30;3.97;;;37.50;60.60;;;;;;5053844;28;20746;-67
2022/06/19 13:17:04;;;;;;;1.15;0.70;;;38.10;59.00;;;;;;5053793;28;20225;-67
2022/06/19 13:20:02;;;;;;;0.90;0.90;;;37.60;59.60;;;;;;5053384;28;20206;-67
2022/06/19 13:23:03;;;;;;;0.80;0.80;;;38.30;58.30;;;;;;5053696;28;20217;-66
2022/06/19 13:26:05;;;;;;;14.18;1.77;;;38.60;57.60;;;;;;5052766;28;20197;-68
2022/06/19 13:28:59;;;;;;;12.40;1.85;;;38.80;56.70;;;;;;5052454;28;20205;-67
2022/06/19 13:31:53;;;;;;;1.48;1.38;;;39.40;55.80;;;;;;5053453;28;20205;-67
2022/06/19 13:34:55;;;;;;;1.60;1.20;;;39.30;55.70;;;;;;5053269;28;20201;-66
2022/06/19 13:37:58;;;;;;;4.22;1.02;;;39.40;55.60;;;;;;5051861;28;20240;-67
2022/06/19 13:40:52;;;;;;;1.20;1.10;;;40.20;54.50;;;;;;5052931;28;20208;-67
2022/06/19 13:43:52;;;;;;;1.50;1.30;;;40.90;53.90;;;;;;5053859;28;20721;-67
2022/06/19 13:46:48;;;;;;;5.35;1.63;;;40.50;52.90;;;;;;5053046;28;20520;-67
2022/06/19 13:49:42;;;;;;;0.50;0.50;;;40.20;52.40;;;;;;5052955;28;20208;-67
2022/06/19 13:52:44;;;;;;;0.93;0.93;;;39.30;53.10;;;;;;5053554;28;20198;-67
2022/06/19 13:55:48;;;;;;;0.80;0.80;;;38.10;54.40;;;;;;5053203;28;20283;-67
2022/06/19 13:58:51;;;;;;;6.32;1.25;;;37.00;56.00;;;;;;5052873;28;20204;-67
2022/06/19 14:01:50;;;;;;;2.90;2.25;;;37.50;55.80;;;;;;5052068;28;20208;-67
2022/06/19 14:04:56;;;;;;;2.00;0.88;;;37.70;55.70;;;;;;5052500;28;20201;-67
2022/06/19 14:08:08;;;;;;;0.70;0.70;;;37.10;55.50;;;;;;5051814;28;20228;-67
2022/06/19 14:10:59;;;;;;;0.60;0.60;;;35.40;57.70;;;;;;5052600;28;20217;-67
2022/06/19 14:14:12;;;;;;;1.05;1.05;;;33.70;59.70;;;;;;5052081;28;20255;-67
2022/06/19 14:17:06;;;;;;;1.38;1.27;;;32.30;62.40;;;;;;5051541;28;20218;-66
2022/06/19 14:20:04;;;;;;;0.50;0.50;;;31.60;64.30;;;;;;5051854;28;20204;-66
2022/06/19 14:23:02;;;;;;;3.50;1.70;;;31.20;65.60;;;;;;5051522;28;20217;-66
2022/06/19 14:26:00;;;;;;;1.15;1.15;;;30.80;66.50;;;;;;5051501;28;20574;-67
2022/06/19 14:29:20;;;;;;;2.40;1.20;;;30.50;67.00;;;;;;5052032;28;20201;-66
2022/06/19 14:32:13;;;;;;;2.42;2.00;;;30.50;67.80;;;;;;5051605;28;20704;-66
2022/06/19 14:35:26;;;;;;;2.08;0.82;;;31.50;66.80;;;;;;5052750;28;20204;-67
2022/06/19 14:38:32;;;;;;;0.70;0.70;;;32.60;64.80;;;;;;5051944;28;20228;-67
2022/06/19 14:41:32;;;;;;;0.50;0.50;;;32.90;64.30;;;;;;5050945;28;20394;-66
2022/06/19 14:44:22;;;;;;;0.68;0.68;;;33.00;64.30;;;;;;5051132;28;20217;-67
2022/06/19 14:47:23;;;;;;;3.10;2.50;;;32.90;64.10;;;;;;5050673;28;20698;-66
2022/06/19 14:50:47;;;;;;;0.43;0.43;;;32.00;64.20;;;;;;5051266;28;20693;-67
2022/06/19 14:53:49;;;;;;;0.68;0.68;;;31.50;65.60;;;;;;5051307;28;20692;-67
2022/06/19 14:57:07;;;;;;;2.60;2.40;;;31.20;66.10;;;;;;5051011;28;20216;-66
2022/06/19 14:59:59;;;;;;;1.02;1.02;;;31.00;66.90;;;;;;5051132;28;20239;-66
2022/06/19 15:02:51;;;;;;;1.23;1.13;;;30.70;68.70;;;;;;5051991;28;20255;-66
2022/06/19 15:05:49;;;;;;;4.22;3.35;;;30.20;69.40;;;;;;5051785;28;20201;-67
2022/06/19 15:08:41;;;;;;;0.50;0.50;;;29.60;71.10;;;;;;5051445;28;20209;-66
2022/06/19 15:11:32;;;;;;;0.40;0.40;;;29.30;72.60;;;;;;5051727;28;20694;-66
2022/06/19 15:14:49;;;;;;;0.85;0.85;;;29.00;73.90;;;;;;5051828;28;20196;-66
2022/06/19 15:17:42;;;;;;;0.50;0.50;;;29.20;74.50;;;;;;5051725;28;20225;-67
2022/06/19 15:20:42;;;;;;;4.35;1.75;;;29.20;74.70;;;;;;5051240;28;20204;-66